sensor_id;sensor_type;location;lat;lon;timestamp;pressure;altitude;pressure_sealevel;temperature;humidity
11114;BME280;5610;52.154;9.198;2022-12-29T00:02:38;99465.72;;;11.47;100.00
11114;BME280;5610;52.154;9.198;2022-12-29T00:05:23;99472.88;;;11.46;100.00
11114;BME280;5610;52.154;9.198;2022-12-29T00:08:09;99460.59;;;11.55;100.00
11114;BME280;5610;52.154;9.198;2022-12-29T00:10:54;99469.44;;;11.55;100.00
11114;BME280;5610;52.154;9.198;2022-12-29T00:13:40;99467.69;;;11.45;100.00
11114;BME280;5610;52.154;9.198;2022-12-29T00:16:44;99467.66;;;11.56;100.00
11114;BME280;5610;52.154;9.198;2022-12-29T00:19:31;99458.66;;;11.57;100.00
11114;BME280;5610;52.154;9.198;2022-12-29T00:22:34;99464.84;;;11.58;100.00
11114;BME280;5610;52.154;9.198;2022-12-29T00:25:36;99479.75;;;11.60;100.00
11114;BME280;5610;52.154;9.198;2022-12-29T00:28:39;99487.03;;;11.58;100.00
11114;BME280;5610;52.154;9.198;2022-12-29T00:31:42;99477.22;;;11.59;100.00
11114;BME280;5610;52.154;9.198;2022-12-29T00:34:47;99458.66;;;11.57;100.00
11114;BME280;5610;52.154;9.198;2022-12-29T00:37:50;99461.34;;;11.57;100.00
11114;BME280;5610;52.154;9.198;2022-12-29T00:40:53;99454.69;;;11.51;100.00
11114;BME280;5610;52.154;9.198;2022-12-29T00:43:56;99450.34;;;11.50;100.00
11114;BME280;5610;52.154;9.198;2022-12-29T00:46:50;99443.31;;;11.49;100.00
11114;BME280;5610;52.154;9.198;2022-12-29T00:49:37;99440.66;;;11.49;100.00
11114;BME280;5610;52.154;9.198;2022-12-29T00:52:23;99440.25;;;11.54;100.00
11114;BME280;5610;52.154;9.198;2022-12-29T00:55:09;99436.16;;;11.50;100.00
11114;BME280;5610;52.154;9.198;2022-12-29T00:57:54;99446.41;;;11.54;100.00
11114;BME280;5610;52.154;9.198;2022-12-29T01:00:39;99418.50;;;11.59;100.00
11114;BME280;5610;52.154;9.198;2022-12-29T01:03:25;99418.19;;;11.52;100.00
11114;BME280;5610;52.154;9.198;2022-12-29T01:06:11;99417.00;;;11.66;100.00
11114;BME280;5610;52.154;9.198;2022-12-29T01:08:58;99419.41;;;11.69;100.00
11114;BME280;5610;52.154;9.198;2022-12-29T01:12:00;99401.06;;;11.75;100.00
11114;BME280;5610;52.154;9.198;2022-12-29T01:14:46;99403.00;;;11.73;100.00
11114;BME280;5610;52.154;9.198;2022-12-29T01:17:31;99411.72;;;11.75;100.00
11114;BME280;5610;52.154;9.198;2022-12-29T01:20:16;99422.63;;;11.83;100.00
11114;BME280;5610;52.154;9.198;2022-12-29T01:23:02;99407.72;;;11.81;100.00
11114;BME280;5610;52.154;9.198;2022-12-29T01:25:48;99415.91;;;11.89;100.00
11114;BME280;5610;52.154;9.198;2022-12-29T01:28:34;99388.56;;;11.76;100.00
11114;BME280;5610;52.154;9.198;2022-12-29T01:31:19;99376.66;;;11.80;100.00
11114;BME280;5610;52.154;9.198;2022-12-29T01:34:05;99387.22;;;11.81;100.00
11114;BME280;5610;52.154;9.198;2022-12-29T01:36:50;99389.88;;;11.81;100.00
11114;BME280;5610;52.154;9.198;2022-12-29T01:39:35;99382.34;;;11.87;100.00
11114;BME280;5610;52.154;9.198;2022-12-29T01:42:24;99376.00;;;11.88;100.00
11114;BME280;5610;52.154;9.198;2022-12-29T01:45:11;99378.53;;;11.89;100.00
11114;BME280;5610;52.154;9.198;2022-12-29T01:47:59;99369.31;;;11.93;100.00
11114;BME280;5610;52.154;9.198;2022-12-29T01:50:50;99364.94;;;11.92;100.00
11114;BME280;5610;52.154;9.198;2022-12-29T01:53:37;99362.84;;;11.75;100.00
11114;BME280;5610;52.154;9.198;2022-12-29T01:56:23;99364.53;;;11.76;100.00
11114;BME280;5610;52.154;9.198;2022-12-29T01:59:14;99358.56;;;11.83;100.00
11114;BME280;5610;52.154;9.198;2022-12-29T02:02:01;99365.47;;;11.65;100.00
11114;BME280;5610;52.154;9.198;2022-12-29T02:04:46;99365.63;;;11.43;100.00
11114;BME280;5610;52.154;9.198;2022-12-29T02:07:35;99376.50;;;11.30;100.00
11114;BME280;5610;52.154;9.198;2022-12-29T02:10:23;99367.97;;;11.15;100.00
11114;BME280;5610;52.154;9.198;2022-12-29T02:13:09;99360.34;;;11.11;100.00
11114;BME280;5610;52.154;9.198;2022-12-29T02:16:05;99365.34;;;11.04;100.00
11114;BME280;5610;52.154;9.198;2022-12-29T02:19:09;99355.03;;;11.11;100.00
11114;BME280;5610;52.154;9.198;2022-12-29T02:22:08;99349.56;;;11.12;100.00
11114;BME280;5610;52.154;9.198;2022-12-29T02:25:38;99344.50;;;11.09;100.00
11114;BME280;5610;52.154;9.198;2022-12-29T02:28:59;99350.06;;;11.06;100.00
11114;BME280;5610;52.154;9.198;2022-12-29T02:31:56;99341.13;;;11.07;100.00
11114;BME280;5610;52.154;9.198;2022-12-29T02:34:47;99340.38;;;11.05;100.00
11114;BME280;5610;52.154;9.198;2022-12-29T02:37:42;99345.47;;;11.08;100.00
11114;BME280;5610;52.154;9.198;2022-12-29T02:40:37;99339.19;;;10.98;100.00
11114;BME280;5610;52.154;9.198;2022-12-29T02:43:26;99336.94;;;10.93;100.00
11114;BME280;5610;52.154;9.198;2022-12-29T02:46:19;99334.06;;;10.85;100.00
11114;BME280;5610;52.154;9.198;2022-12-29T02:49:12;99334.06;;;10.85;100.00
11114;BME280;5610;52.154;9.198;2022-12-29T02:52:03;99337.06;;;10.92;100.00
11114;BME280;5610;52.154;9.198;2022-12-29T02:54:49;99342.78;;;10.87;100.00
11114;BME280;5610;52.154;9.198;2022-12-29T02:57:35;99328.63;;;10.87;100.00
11114;BME280;5610;52.154;9.198;2022-12-29T03:00:20;99310.00;;;10.76;100.00
11114;BME280;5610;52.154;9.198;2022-12-29T03:03:16;99308.31;;;10.75;100.00
11114;BME280;5610;52.154;9.198;2022-12-29T03:06:21;99318.59;;;10.79;100.00
11114;BME280;5610;52.154;9.198;2022-12-29T03:09:16;99311.38;;;10.91;100.00
11114;BME280;5610;52.154;9.198;2022-12-29T03:12:14;99296.66;;;10.87;100.00
11114;BME280;5610;52.154;9.198;2022-12-29T03:15:03;99286.22;;;11.05;100.00
11114;BME280;5610;52.154;9.198;2022-12-29T03:18:15;99292.28;;;11.07;100.00
11114;BME280;5610;52.154;9.198;2022-12-29T03:21:06;99289.16;;;11.22;100.00
11114;BME280;5610;52.154;9.198;2022-12-29T03:23:54;99285.75;;;11.20;100.00
11114;BME280;5610;52.154;9.198;2022-12-29T03:26:41;99286.06;;;11.27;100.00
11114;BME280;5610;52.154;9.198;2022-12-29T03:29:29;99283.63;;;11.35;100.00
11114;BME280;5610;52.154;9.198;2022-12-29T03:32:16;99266.78;;;11.35;100.00
11114;BME280;5610;52.154;9.198;2022-12-29T03:35:03;99273.69;;;11.47;100.00
11114;BME280;5610;52.154;9.198;2022-12-29T03:37:52;99268.53;;;11.55;100.00
11114;BME280;5610;52.154;9.198;2022-12-29T03:40:43;99263.50;;;11.62;100.00
11114;BME280;5610;52.154;9.198;2022-12-29T03:43:30;99261.56;;;11.64;100.00
11114;BME280;5610;52.154;9.198;2022-12-29T03:46:16;99273.94;;;11.74;100.00
11114;BME280;5610;52.154;9.198;2022-12-29T03:49:02;99276.81;;;11.82;100.00
11114;BME280;5610;52.154;9.198;2022-12-29T03:51:47;99263.06;;;11.87;100.00
11114;BME280;5610;52.154;9.198;2022-12-29T03:54:32;99267.72;;;11.95;100.00
11114;BME280;5610;52.154;9.198;2022-12-29T03:57:19;99263.53;;;12.02;100.00
11114;BME280;5610;52.154;9.198;2022-12-29T04:00:14;99266.22;;;12.12;100.00
11114;BME280;5610;52.154;9.198;2022-12-29T04:03:03;99254.56;;;12.13;100.00
11114;BME280;5610;52.154;9.198;2022-12-29T04:05:48;99265.38;;;12.11;100.00
11114;BME280;5610;52.154;9.198;2022-12-29T04:08:34;99256.13;;;12.15;100.00
11114;BME280;5610;52.154;9.198;2022-12-29T04:11:20;99274.50;;;12.18;100.00
11114;BME280;5610;52.154;9.198;2022-12-29T04:14:08;99264.00;;;12.26;100.00
11114;BME280;5610;52.154;9.198;2022-12-29T04:16:54;99267.81;;;12.33;100.00
11114;BME280;5610;52.154;9.198;2022-12-29T04:19:39;99265.97;;;12.44;100.00
11114;BME280;5610;52.154;9.198;2022-12-29T04:22:24;99271.31;;;12.44;100.00
11114;BME280;5610;52.154;9.198;2022-12-29T04:25:09;99253.59;;;12.52;100.00
11114;BME280;5610;52.154;9.198;2022-12-29T04:27:55;99272.19;;;12.63;100.00
11114;BME280;5610;52.154;9.198;2022-12-29T04:31:06;99256.41;;;12.70;100.00
11114;BME280;5610;52.154;9.198;2022-12-29T04:33:53;99258.94;;;12.72;100.00
11114;BME280;5610;52.154;9.198;2022-12-29T04:36:41;99235.31;;;12.67;100.00
11114;BME280;5610;52.154;9.198;2022-12-29T04:39:26;99243.19;;;12.59;100.00
11114;BME280;5610;52.154;9.198;2022-12-29T04:42:12;99246.13;;;12.75;100.00
11114;BME280;5610;52.154;9.198;2022-12-29T04:44:57;99237.69;;;12.80;100.00
11114;BME280;5610;52.154;9.198;2022-12-29T04:47:56;99255.72;;;12.78;100.00
11114;BME280;5610;52.154;9.198;2022-12-29T04:51:00;99243.59;;;12.74;100.00
11114;BME280;5610;52.154;9.198;2022-12-29T04:53:52;99248.09;;;12.73;100.00
11114;BME280;5610;52.154;9.198;2022-12-29T04:56:38;99255.44;;;12.61;100.00
11114;BME280;5610;52.154;9.198;2022-12-29T04:59:23;99258.66;;;12.46;100.00
11114;BME280;5610;52.154;9.198;2022-12-29T05:02:12;99256.28;;;12.52;100.00
11114;BME280;5610;52.154;9.198;2022-12-29T05:04:59;99245.44;;;12.54;100.00
11114;BME280;5610;52.154;9.198;2022-12-29T05:07:44;99250.22;;;12.50;100.00
11114;BME280;5610;52.154;9.198;2022-12-29T05:10:30;99239.56;;;12.50;100.00
11114;BME280;5610;52.154;9.198;2022-12-29T05:13:18;99248.41;;;12.51;100.00
11114;BME280;5610;52.154;9.198;2022-12-29T05:16:05;99227.19;;;12.49;100.00
11114;BME280;5610;52.154;9.198;2022-12-29T05:18:50;99246.16;;;12.36;100.00
11114;BME280;5610;52.154;9.198;2022-12-29T05:21:38;99235.31;;;12.19;100.00
11114;BME280;5610;52.154;9.198;2022-12-29T05:24:24;99233.91;;;12.15;100.00
11114;BME280;5610;52.154;9.198;2022-12-29T05:27:12;99233.19;;;12.03;100.00
11114;BME280;5610;52.154;9.198;2022-12-29T05:30:10;99230.66;;;12.01;100.00
11114;BME280;5610;52.154;9.198;2022-12-29T05:32:56;99231.59;;;11.81;100.00
11114;BME280;5610;52.154;9.198;2022-12-29T05:35:41;99237.56;;;11.73;100.00
11114;BME280;5610;52.154;9.198;2022-12-29T05:38:28;99236.53;;;11.86;100.00
11114;BME280;5610;52.154;9.198;2022-12-29T05:41:13;99240.28;;;11.83;100.00
11114;BME280;5610;52.154;9.198;2022-12-29T05:44:22;99251.38;;;11.78;100.00
11114;BME280;5610;52.154;9.198;2022-12-29T05:47:28;99246.28;;;11.75;100.00
11114;BME280;5610;52.154;9.198;2022-12-29T05:50:27;99225.38;;;11.71;100.00
11114;BME280;5610;52.154;9.198;2022-12-29T05:53:32;99224.78;;;11.67;100.00
11114;BME280;5610;52.154;9.198;2022-12-29T05:56:18;99225.91;;;11.74;100.00
11114;BME280;5610;52.154;9.198;2022-12-29T05:59:10;99228.53;;;11.86;100.00
11114;BME280;5610;52.154;9.198;2022-12-29T06:01:56;99216.03;;;11.86;100.00
11114;BME280;5610;52.154;9.198;2022-12-29T06:04:41;99226.69;;;11.86;100.00
11114;BME280;5610;52.154;9.198;2022-12-29T06:07:27;99210.56;;;12.07;100.00
11114;BME280;5610;52.154;9.198;2022-12-29T06:10:14;99206.81;;;12.19;100.00
11114;BME280;5610;52.154;9.198;2022-12-29T06:13:03;99200.03;;;12.25;100.00
11114;BME280;5610;52.154;9.198;2022-12-29T06:15:50;99206.94;;;12.27;100.00
11114;BME280;5610;52.154;9.198;2022-12-29T06:18:36;99204.41;;;12.35;100.00
11114;BME280;5610;52.154;9.198;2022-12-29T06:21:21;99197.94;;;12.48;100.00
11114;BME280;5610;52.154;9.198;2022-12-29T06:24:07;99207.19;;;12.53;100.00
11114;BME280;5610;52.154;9.198;2022-12-29T06:26:56;99199.72;;;12.67;100.00
11114;BME280;5610;52.154;9.198;2022-12-29T06:29:41;99191.88;;;12.65;100.00
11114;BME280;5610;52.154;9.198;2022-12-29T06:32:27;99195.91;;;12.79;100.00
11114;BME280;5610;52.154;9.198;2022-12-29T06:35:17;99192.13;;;12.72;100.00
11114;BME280;5610;52.154;9.198;2022-12-29T06:38:06;99202.25;;;12.78;100.00
11114;BME280;5610;52.154;9.198;2022-12-29T06:40:52;99182.97;;;12.74;100.00
11114;BME280;5610;52.154;9.198;2022-12-29T06:43:39;99194.78;;;12.91;100.00
11114;BME280;5610;52.154;9.198;2022-12-29T06:46:40;99194.19;;;12.97;100.00
11114;BME280;5610;52.154;9.198;2022-12-29T06:49:25;99201.66;;;12.93;100.00
11114;BME280;5610;52.154;9.198;2022-12-29T06:52:11;99191.91;;;13.02;100.00
11114;BME280;5610;52.154;9.198;2022-12-29T06:54:56;99189.81;;;13.06;100.00
11114;BME280;5610;52.154;9.198;2022-12-29T06:57:42;99202.59;;;13.12;100.00
11114;BME280;5610;52.154;9.198;2022-12-29T07:00:29;99206.13;;;13.03;100.00
11114;BME280;5610;52.154;9.198;2022-12-29T07:03:14;99195.88;;;12.88;100.00
11114;BME280;5610;52.154;9.198;2022-12-29T07:06:00;99230.38;;;12.91;100.00
11114;BME280;5610;52.154;9.198;2022-12-29T07:08:45;99247.56;;;12.70;100.00
11114;BME280;5610;52.154;9.198;2022-12-29T07:11:30;99256.94;;;12.06;100.00
11114;BME280;5610;52.154;9.198;2022-12-29T07:14:16;99260.31;;;11.98;100.00
11114;BME280;5610;52.154;9.198;2022-12-29T07:17:03;99281.78;;;11.97;100.00
11114;BME280;5610;52.154;9.198;2022-12-29T07:19:49;99280.53;;;11.91;100.00
11114;BME280;5610;52.154;9.198;2022-12-29T07:22:34;99263.06;;;11.87;100.00
11114;BME280;5610;52.154;9.198;2022-12-29T07:25:20;99277.69;;;11.93;100.00
11114;BME280;5610;52.154;9.198;2022-12-29T07:28:05;99291.44;;;11.88;100.00
11114;BME280;5610;52.154;9.198;2022-12-29T07:30:50;99298.06;;;11.94;100.00
11114;BME280;5610;52.154;9.198;2022-12-29T07:33:37;99299.91;;;11.93;100.00
11114;BME280;5610;52.154;9.198;2022-12-29T07:36:23;99290.56;;;11.78;100.00
11114;BME280;5610;52.154;9.198;2022-12-29T07:39:08;99286.31;;;11.75;100.00
11114;BME280;5610;52.154;9.198;2022-12-29T07:41:55;99292.19;;;11.69;100.00
11114;BME280;5610;52.154;9.198;2022-12-29T07:44:43;99287.50;;;11.82;100.00
11114;BME280;5610;52.154;9.198;2022-12-29T07:47:48;99283.88;;;11.93;100.00
11114;BME280;5610;52.154;9.198;2022-12-29T07:50:36;99294.41;;;11.95;100.00
11114;BME280;5610;52.154;9.198;2022-12-29T07:53:21;99301.88;;;12.01;100.00
11114;BME280;5610;52.154;9.198;2022-12-29T07:56:06;99322.13;;;12.03;100.00
11114;BME280;5610;52.154;9.198;2022-12-29T07:58:52;99318.47;;;12.04;100.00
11114;BME280;5610;52.154;9.198;2022-12-29T08:01:37;99344.16;;;11.75;100.00
11114;BME280;5610;52.154;9.198;2022-12-29T08:04:23;99326.56;;;11.63;100.00
11114;BME280;5610;52.154;9.198;2022-12-29T08:07:09;99353.38;;;11.40;100.00
11114;BME280;5610;52.154;9.198;2022-12-29T08:09:55;99343.38;;;11.12;100.00
11114;BME280;5610;52.154;9.198;2022-12-29T08:12:41;99335.47;;;11.00;100.00
11114;BME280;5610;52.154;9.198;2022-12-29T08:15:26;99332.69;;;10.91;100.00
11114;BME280;5610;52.154;9.198;2022-12-29T08:18:12;99336.63;;;10.87;100.00
11114;BME280;5610;52.154;9.198;2022-12-29T08:21:01;99335.09;;;10.73;100.00
11114;BME280;5610;52.154;9.198;2022-12-29T08:23:48;99340.38;;;10.52;100.00
11114;BME280;5610;52.154;9.198;2022-12-29T08:26:33;99347.03;;;10.58;100.00
11114;BME280;5610;52.154;9.198;2022-12-29T08:29:18;99352.72;;;10.53;100.00
11114;BME280;5610;52.154;9.198;2022-12-29T08:32:05;99356.09;;;10.55;100.00
11114;BME280;5610;52.154;9.198;2022-12-29T08:34:50;99349.22;;;10.41;100.00
11114;BME280;5610;52.154;9.198;2022-12-29T08:37:36;99371.72;;;10.49;100.00
11114;BME280;5610;52.154;9.198;2022-12-29T08:40:22;99368.47;;;10.45;100.00
11114;BME280;5610;52.154;9.198;2022-12-29T08:43:08;99366.03;;;10.53;100.00
11114;BME280;5610;52.154;9.198;2022-12-29T08:45:54;99368.81;;;10.52;100.00
11114;BME280;5610;52.154;9.198;2022-12-29T08:48:39;99362.88;;;10.59;100.00
11114;BME280;5610;52.154;9.198;2022-12-29T08:51:25;99385.50;;;10.65;100.00
11114;BME280;5610;52.154;9.198;2022-12-29T08:54:10;99384.13;;;10.70;100.00
11114;BME280;5610;52.154;9.198;2022-12-29T08:56:57;99383.19;;;10.71;100.00
11114;BME280;5610;52.154;9.198;2022-12-29T08:59:50;99377.59;;;10.75;100.00
11114;BME280;5610;52.154;9.198;2022-12-29T09:02:36;99364.00;;;10.78;100.00
11114;BME280;5610;52.154;9.198;2022-12-29T09:05:21;99379.63;;;10.82;100.00
11114;BME280;5610;52.154;9.198;2022-12-29T09:08:06;99381.78;;;10.88;100.00
11114;BME280;5610;52.154;9.198;2022-12-29T09:10:52;99375.09;;;10.94;100.00
11114;BME280;5610;52.154;9.198;2022-12-29T09:13:39;99382.88;;;10.86;100.00
11114;BME280;5610;52.154;9.198;2022-12-29T09:16:24;99374.63;;;10.89;100.00
11114;BME280;5610;52.154;9.198;2022-12-29T09:19:10;99382.69;;;10.98;100.00
11114;BME280;5610;52.154;9.198;2022-12-29T09:21:55;99392.09;;;11.14;100.00
11114;BME280;5610;52.154;9.198;2022-12-29T09:24:41;99399.19;;;11.24;100.00
11114;BME280;5610;52.154;9.198;2022-12-29T09:27:26;99396.38;;;11.26;100.00
11114;BME280;5610;52.154;9.198;2022-12-29T09:30:13;99393.28;;;11.42;100.00
11114;BME280;5610;52.154;9.198;2022-12-29T09:32:58;99389.03;;;11.39;100.00
11114;BME280;5610;52.154;9.198;2022-12-29T09:35:48;99389.50;;;11.44;100.00
11114;BME280;5610;52.154;9.198;2022-12-29T09:38:34;99399.31;;;11.44;100.00
11114;BME280;5610;52.154;9.198;2022-12-29T09:41:25;99403.63;;;11.35;100.00
11114;BME280;5610;52.154;9.198;2022-12-29T09:44:16;99405.66;;;11.11;100.00
11114;BME280;5610;52.154;9.198;2022-12-29T09:47:09;99411.50;;;11.05;100.00
11114;BME280;5610;52.154;9.198;2022-12-29T09:49:59;99418.81;;;10.91;100.00
11114;BME280;5610;52.154;9.198;2022-12-29T09:52:49;99413.88;;;10.87;100.00
11114;BME280;5610;52.154;9.198;2022-12-29T09:55:38;99402.75;;;10.82;100.00
11114;BME280;5610;52.154;9.198;2022-12-29T09:58:28;99402.16;;;11.73;100.00
11114;BME280;5610;52.154;9.198;2022-12-29T10:01:23;99406.81;;;11.92;100.00
11114;BME280;5610;52.154;9.198;2022-12-29T10:04:12;99409.94;;;12.47;100.00
11114;BME280;5610;52.154;9.198;2022-12-29T10:07:01;99401.97;;;13.82;100.00
11114;BME280;5610;52.154;9.198;2022-12-29T10:09:54;99391.72;;;14.70;100.00
11114;BME280;5610;52.154;9.198;2022-12-29T10:12:52;99385.91;;;15.10;100.00
11114;BME280;5610;52.154;9.198;2022-12-29T10:15:49;99386.06;;;14.45;100.00
11114;BME280;5610;52.154;9.198;2022-12-29T10:18:57;99406.50;;;13.72;100.00
11114;BME280;5610;52.154;9.198;2022-12-29T10:21:59;99398.91;;;13.09;100.00
11114;BME280;5610;52.154;9.198;2022-12-29T10:24:48;99399.06;;;12.69;100.00
11114;BME280;5610;52.154;9.198;2022-12-29T10:27:36;99407.47;;;12.64;100.00
11114;BME280;5610;52.154;9.198;2022-12-29T10:30:22;99403.25;;;12.62;100.00
11114;BME280;5610;52.154;9.198;2022-12-29T10:33:12;99386.28;;;12.32;100.00
11114;BME280;5610;52.154;9.198;2022-12-29T10:36:03;99403.03;;;12.04;100.00
11114;BME280;5610;52.154;9.198;2022-12-29T10:39:04;99409.47;;;11.92;100.00
11114;BME280;5610;52.154;9.198;2022-12-29T10:42:01;99404.44;;;11.98;100.00
11114;BME280;5610;52.154;9.198;2022-12-29T10:44:46;99389.72;;;12.54;100.00
11114;BME280;5610;52.154;9.198;2022-12-29T10:47:34;99405.81;;;12.92;100.00
11114;BME280;5610;52.154;9.198;2022-12-29T10:50:24;99401.63;;;13.38;100.00
11114;BME280;5610;52.154;9.198;2022-12-29T10:53:15;99405.13;;;13.39;100.00
11114;BME280;5610;52.154;9.198;2022-12-29T10:56:14;99388.63;;;13.63;100.00
11114;BME280;5610;52.154;9.198;2022-12-29T10:59:10;99404.03;;;13.22;100.00
11114;BME280;5610;52.154;9.198;2022-12-29T11:02:01;99394.16;;;13.42;100.00
11114;BME280;5610;52.154;9.198;2022-12-29T11:04:55;99396.28;;;13.29;100.00
11114;BME280;5610;52.154;9.198;2022-12-29T11:07:43;99403.69;;;12.96;100.00
11114;BME280;5610;52.154;9.198;2022-12-29T11:10:34;99398.53;;;13.33;100.00
11114;BME280;5610;52.154;9.198;2022-12-29T11:13:27;99403.97;;;14.72;100.00
11114;BME280;5610;52.154;9.198;2022-12-29T11:16:12;99398.06;;;16.10;100.00
11114;BME280;5610;52.154;9.198;2022-12-29T11:18:58;99395.56;;;17.25;93.51
11114;BME280;5610;52.154;9.198;2022-12-29T11:21:43;99394.88;;;20.34;74.22
11114;BME280;5610;52.154;9.198;2022-12-29T11:24:29;99388.72;;;21.77;58.00
11114;BME280;5610;52.154;9.198;2022-12-29T11:27:16;99391.59;;;19.19;61.72
11114;BME280;5610;52.154;9.198;2022-12-29T11:30:22;99383.09;;;17.65;69.79
11114;BME280;5610;52.154;9.198;2022-12-29T11:33:08;99377.53;;;20.14;66.49
11114;BME280;5610;52.154;9.198;2022-12-29T11:35:57;99373.94;;;20.87;59.29
11114;BME280;5610;52.154;9.198;2022-12-29T11:38:47;99396.13;;;20.32;59.57
11114;BME280;5610;52.154;9.198;2022-12-29T11:41:33;99407.00;;;17.52;62.63
11114;BME280;5610;52.154;9.198;2022-12-29T11:44:19;99401.53;;;16.70;68.14
11114;BME280;5610;52.154;9.198;2022-12-29T11:47:11;99411.41;;;15.68;71.32
11114;BME280;5610;52.154;9.198;2022-12-29T11:49:59;99409.88;;;14.76;78.44
11114;BME280;5610;52.154;9.198;2022-12-29T11:52:46;99417.09;;;14.11;84.00
11114;BME280;5610;52.154;9.198;2022-12-29T11:55:33;99436.94;;;13.52;90.18
11114;BME280;5610;52.154;9.198;2022-12-29T11:58:18;99426.09;;;13.14;96.69
11114;BME280;5610;52.154;9.198;2022-12-29T12:01:07;99421.88;;;12.83;100.00
11114;BME280;5610;52.154;9.198;2022-12-29T12:04:01;99429.13;;;12.61;100.00
11114;BME280;5610;52.154;9.198;2022-12-29T12:06:53;99416.34;;;12.65;100.00
11114;BME280;5610;52.154;9.198;2022-12-29T12:09:45;99427.72;;;12.57;100.00
11114;BME280;5610;52.154;9.198;2022-12-29T12:12:38;99425.19;;;12.56;100.00
11114;BME280;5610;52.154;9.198;2022-12-29T12:15:28;99416.72;;;12.60;100.00
11114;BME280;5610;52.154;9.198;2022-12-29T12:18:18;99419.94;;;12.45;100.00
11114;BME280;5610;52.154;9.198;2022-12-29T12:21:18;99443.53;;;12.40;100.00
11114;BME280;5610;52.154;9.198;2022-12-29T12:24:30;99408.81;;;12.40;100.00
11114;BME280;5610;52.154;9.198;2022-12-29T12:27:20;99419.84;;;12.56;100.00
11114;BME280;5610;52.154;9.198;2022-12-29T12:30:12;99415.59;;;12.53;100.00
11114;BME280;5610;52.154;9.198;2022-12-29T12:33:03;99422.06;;;12.51;100.00
11114;BME280;5610;52.154;9.198;2022-12-29T12:35:57;99415.88;;;12.60;100.00
11114;BME280;5610;52.154;9.198;2022-12-29T12:38:54;99444.19;;;12.62;100.00
11114;BME280;5610;52.154;9.198;2022-12-29T12:41:48;99432.97;;;12.38;100.00
11114;BME280;5610;52.154;9.198;2022-12-29T12:44:46;99439.69;;;12.63;100.00
11114;BME280;5610;52.154;9.198;2022-12-29T12:47:48;99434.56;;;12.50;100.00
11114;BME280;5610;52.154;9.198;2022-12-29T12:50:45;99427.72;;;12.67;100.00
11114;BME280;5610;52.154;9.198;2022-12-29T12:53:53;99428.84;;;12.55;99.38
11114;BME280;5610;52.154;9.198;2022-12-29T12:56:56;99431.38;;;12.56;98.47
11114;BME280;5610;52.154;9.198;2022-12-29T12:59:52;99438.78;;;12.53;99.27
11114;BME280;5610;52.154;9.198;2022-12-29T13:02:49;99446.94;;;12.51;100.00
11114;BME280;5610;52.154;9.198;2022-12-29T13:05:54;99443.88;;;12.56;100.00
11114;BME280;5610;52.154;9.198;2022-12-29T13:08:58;99446.56;;;12.56;99.01
11114;BME280;5610;52.154;9.198;2022-12-29T13:11:56;99452.75;;;12.66;100.00
11114;BME280;5610;52.154;9.198;2022-12-29T13:14:57;99442.06;;;12.56;99.05
11114;BME280;5610;52.154;9.198;2022-12-29T13:17:52;99454.19;;;12.70;100.00
11114;BME280;5610;52.154;9.198;2022-12-29T13:20:47;99449.09;;;12.57;99.29
11114;BME280;5610;52.154;9.198;2022-12-29T13:23:39;99462.00;;;12.52;100.00
11114;BME280;5610;52.154;9.198;2022-12-29T13:26:31;99473.97;;;12.58;100.00
11114;BME280;5610;52.154;9.198;2022-12-29T13:29:22;99472.72;;;12.62;100.00
11114;BME280;5610;52.154;9.198;2022-12-29T13:32:21;99471.59;;;12.24;100.00
11114;BME280;5610;52.154;9.198;2022-12-29T13:35:24;99477.16;;;12.42;100.00
11114;BME280;5610;52.154;9.198;2022-12-29T13:38:17;99486.00;;;12.43;100.00
11114;BME280;5610;52.154;9.198;2022-12-29T13:41:07;99511.06;;;12.51;100.00
11114;BME280;5610;52.154;9.198;2022-12-29T13:43:55;99500.25;;;12.53;100.00
11114;BME280;5610;52.154;9.198;2022-12-29T13:46:43;99509.88;;;12.34;100.00
11114;BME280;5610;52.154;9.198;2022-12-29T13:49:32;99511.03;;;12.42;100.00
11114;BME280;5610;52.154;9.198;2022-12-29T13:52:21;99505.38;;;12.35;100.00
11114;BME280;5610;52.154;9.198;2022-12-29T13:55:21;99510.94;;;12.22;100.00
11114;BME280;5610;52.154;9.198;2022-12-29T13:58:14;99522.13;;;12.37;100.00
11114;BME280;5610;52.154;9.198;2022-12-29T14:01:12;99537.81;;;12.30;100.00
11114;BME280;5610;52.154;9.198;2022-12-29T14:04:09;99529.97;;;12.08;100.00
11114;BME280;5610;52.154;9.198;2022-12-29T14:07:00;99543.44;;;12.27;100.00
11114;BME280;5610;52.154;9.198;2022-12-29T14:09:48;99538.00;;;12.38;100.00
11114;BME280;5610;52.154;9.198;2022-12-29T14:12:36;99547.81;;;12.07;100.00
11114;BME280;5610;52.154;9.198;2022-12-29T14:15:25;99551.38;;;12.18;100.00
11114;BME280;5610;52.154;9.198;2022-12-29T14:18:14;99562.72;;;12.10;100.00
11114;BME280;5610;52.154;9.198;2022-12-29T14:21:08;99574.44;;;11.98;100.00
11114;BME280;5610;52.154;9.198;2022-12-29T14:24:27;99577.03;;;11.88;100.00
11114;BME280;5610;52.154;9.198;2022-12-29T14:27:50;99574.25;;;11.78;100.00
11114;BME280;5610;52.154;9.198;2022-12-29T14:30:58;99572.81;;;11.74;100.00
11114;BME280;5610;52.154;9.198;2022-12-29T14:37:23;99575.56;;;11.63;100.00
11114;BME280;5610;52.154;9.198;2022-12-29T14:40:17;99586.22;;;11.63;100.00
11114;BME280;5610;52.154;9.198;2022-12-29T14:43:11;99589.53;;;11.76;100.00
11114;BME280;5610;52.154;9.198;2022-12-29T14:46:00;99583.00;;;11.80;100.00
11114;BME280;5610;52.154;9.198;2022-12-29T14:48:46;99595.75;;;11.77;100.00
11114;BME280;5610;52.154;9.198;2022-12-29T14:51:35;99601.44;;;11.83;100.00
11114;BME280;5610;52.154;9.198;2022-12-29T14:54:47;99586.03;;;11.76;100.00
11114;BME280;5610;52.154;9.198;2022-12-29T14:57:35;99604.84;;;11.74;100.00
11114;BME280;5610;52.154;9.198;2022-12-29T15:00:24;99611.50;;;11.80;100.00
11114;BME280;5610;52.154;9.198;2022-12-29T15:03:16;99604.97;;;11.84;100.00
11114;BME280;5610;52.154;9.198;2022-12-29T15:06:05;99623.66;;;11.84;100.00
11114;BME280;5610;52.154;9.198;2022-12-29T15:08:58;99627.66;;;11.78;100.00